createdAt,value
2022-08-14T00:01:11.495Z,100935.63
2022-08-14T00:03:40.501Z,100936.63
2022-08-14T00:06:13.863Z,100934.13
2022-08-14T00:08:45.233Z,100935.94
2022-08-14T00:11:12.096Z,100936.19
2022-08-14T00:13:38.959Z,100921.66
2022-08-14T00:16:05.703Z,100922.19
2022-08-14T00:19:05.385Z,100914.41
2022-08-14T00:21:22.421Z,100920.13
2022-08-14T00:24:01.776Z,100918.38
2022-08-14T00:26:28.934Z,100918.63
2022-08-14T00:28:55.500Z,100917.13
2022-08-14T00:31:43.991Z,100918.13
2022-08-14T00:34:35.340Z,100913.34
2022-08-14T00:36:56.037Z,100909.16
2022-08-14T00:39:25.937Z,100897.72
2022-08-14T00:41:53.027Z,100899.69
2022-08-14T00:44:21.292Z,100896.34
2022-08-14T00:46:59.660Z,100893.41
2022-08-14T00:49:30.196Z,100896.47
2022-08-14T00:51:57.143Z,100895.19
2022-08-14T00:54:25.300Z,100886.53
2022-08-14T00:56:55.478Z,100882.06
2022-08-14T00:59:27.549Z,100891.84
2022-08-14T01:01:59.659Z,100882.91
2022-08-14T01:04:38.257Z,100889.09
2022-08-14T01:07:21.452Z,100876.31
2022-08-14T01:09:54.255Z,100879.97
2022-08-14T01:12:26.537Z,100872.75
2022-08-14T01:15:02.054Z,100865.25
2022-08-14T01:17:50.675Z,100864.69
2022-08-14T01:20:39.949Z,100866.25
2022-08-14T01:23:16.491Z,100866.53
2022-08-14T01:25:48.190Z,100856.34
2022-08-14T01:28:46.162Z,100853.44
2022-08-14T01:31:02.029Z,100856.50
2022-08-14T01:33:30.341Z,100853.00
2022-08-14T01:36:02.748Z,100842.97
2022-08-14T01:38:37.094Z,100846.50
2022-08-14T01:41:14.687Z,100830.47
2022-08-14T01:44:02.254Z,100831.56
2022-08-14T01:46:36.681Z,100829.06
2022-08-14T01:49:08.160Z,100824.06
2022-08-14T01:51:36.511Z,100823.50
2022-08-14T01:54:09.941Z,100824.63
2022-08-14T01:56:44.927Z,100815.97
2022-08-14T01:59:18.646Z,100813.31
2022-08-14T02:01:51.323Z,100814.16
2022-08-14T02:04:54.988Z,100815.28
2022-08-14T02:07:15.470Z,100809.44
2022-08-14T02:09:42.822Z,100799.53
2022-08-14T02:12:09.646Z,100801.09
2022-08-14T02:14:59.234Z,100798.59
2022-08-14T02:17:29.842Z,100795.38
2022-08-14T02:19:57.591Z,100800.13
2022-08-14T02:22:29.081Z,100800.13
2022-08-14T02:25:00.718Z,100798.47
2022-08-14T02:28:25.045Z,100801.81
2022-08-14T02:30:16.538Z,100801.81
2022-08-14T02:32:44.655Z,100797.06
2022-08-14T02:35:18.848Z,100787.34
2022-08-14T02:37:49.338Z,100795.66
2022-08-14T02:40:18.602Z,100792.34
2022-08-14T02:42:54.861Z,100789.97
2022-08-14T02:45:33.662Z,100788.72
2022-08-14T02:48:10.536Z,100790.09
2022-08-14T02:50:54.426Z,100795.66
2022-08-14T02:53:21.189Z,100794.41
2022-08-14T02:55:47.865Z,100797.59
2022-08-14T02:58:21.366Z,100794.84
2022-08-14T03:00:57.340Z,100793.88
2022-08-14T03:03:24.924Z,100803.47
2022-08-14T03:05:54.401Z,100794.53
2022-08-14T03:08:22.698Z,100792.19
2022-08-14T03:10:52.142Z,100790.25
2022-08-14T03:13:21.261Z,100791.66
2022-08-14T03:15:55.979Z,100798.59
2022-08-14T03:18:31.131Z,100794.00
2022-08-14T03:21:05.466Z,100794.28
2022-08-14T03:23:38.041Z,100791.50
2022-08-14T03:26:08.760Z,100793.00
2022-08-14T03:28:42.257Z,100789.53
2022-08-14T03:31:13.078Z,100784.50
2022-08-14T03:33:41.163Z,100777.28
2022-08-14T03:37:28.985Z,100783.78
2022-08-14T03:39:10.842Z,100783.09
2022-08-14T03:41:45.279Z,100788.78
2022-08-14T03:45:27.631Z,100788.09
2022-08-14T03:46:58.634Z,100799.66
2022-08-14T03:49:29.207Z,100797.56
2022-08-14T03:51:58.188Z,100793.94
2022-08-14T03:54:27.340Z,100793.69
2022-08-14T03:56:54.740Z,100800.34
2022-08-14T03:59:21.421Z,100788.09
2022-08-14T04:01:58.238Z,100785.34
2022-08-14T04:04:33.563Z,100780.31
2022-08-14T04:07:00.862Z,100788.38
2022-08-14T04:09:28.226Z,100789.47
2022-08-14T04:11:56.241Z,100790.66
2022-08-14T04:14:25.141Z,100789.13
2022-08-14T04:16:51.796Z,100785.75
2022-08-14T04:19:23.941Z,100780.63
2022-08-14T04:22:02.149Z,100784.53
2022-08-14T04:24:30.923Z,100779.44
2022-08-14T04:27:04.789Z,100777.38
2022-08-14T04:29:32.669Z,100772.63
2022-08-14T04:32:57.834Z,100765.28
2022-08-14T04:34:51.976Z,100772.94
2022-08-14T04:37:43.545Z,100773.06
2022-08-14T04:40:31.659Z,100774.41
2022-08-14T04:43:17.601Z,100778.56
2022-08-14T04:45:44.860Z,100758.94
2022-08-14T04:48:39.859Z,100759.59
2022-08-14T04:51:03.530Z,100752.06
2022-08-14T04:53:35.543Z,100757.91
2022-08-14T04:56:05.877Z,100759.63
2022-08-14T04:58:37.383Z,100763.41
2022-08-14T05:01:13.042Z,100749.28
2022-08-14T05:03:46.358Z,100748.31
2022-08-14T05:06:35.058Z,100747.75
2022-08-14T05:09:00.692Z,100749.72
2022-08-14T05:11:28.306Z,100744.16
2022-08-14T05:14:17.182Z,100745.28
2022-08-14T05:16:42.339Z,100749.56
2022-08-14T05:19:18.284Z,100753.63
2022-08-14T05:22:16.087Z,100753.44
2022-08-14T05:24:49.699Z,100760.00
2022-08-14T05:27:22.880Z,100755.16
2022-08-14T05:29:52.167Z,100752.22
2022-08-14T05:32:18.784Z,100744.56
2022-08-14T05:34:46.950Z,100739.41
2022-08-14T05:37:15.339Z,100736.19
2022-08-14T05:39:43.405Z,100731.31
2022-08-14T05:42:21.599Z,100729.59
2022-08-14T05:44:55.469Z,100733.59
2022-08-14T05:47:22.948Z,100728.41
2022-08-14T05:49:50.181Z,100719.50
2022-08-14T05:52:18.386Z,100720.88
2022-08-14T05:54:45.048Z,100722.94
2022-08-14T05:57:11.634Z,100722.75
2022-08-14T05:59:39.923Z,100723.69
2022-08-14T06:02:10.201Z,100716.38
2022-08-14T06:04:38.171Z,100717.47
2022-08-14T06:07:05.007Z,100714.22
2022-08-14T06:09:35.469Z,100712.78
2022-08-14T06:12:09.997Z,100715.53
2022-08-14T06:14:37.789Z,100714.22
2022-08-14T06:17:05.713Z,100715.44
2022-08-14T06:19:32.499Z,100723.19
2022-08-14T06:21:59.738Z,100729.84
2022-08-14T06:24:30.443Z,100723.03
2022-08-14T06:27:03.918Z,100731.81
2022-08-14T06:29:34.778Z,100726.44
2022-08-14T06:32:37.388Z,100720.06
2022-08-14T06:35:03.559Z,100720.47
2022-08-14T06:38:07.883Z,100726.50
2022-08-14T06:40:40.342Z,100727.13
2022-08-14T06:43:11.626Z,100733.00
2022-08-14T06:45:43.698Z,100718.81
2022-08-14T06:48:21.632Z,100722.34
2022-08-14T06:50:49.392Z,100719.22
2022-08-14T06:53:16.547Z,100719.44
2022-08-14T06:55:58.049Z,100716.72
2022-08-14T06:58:29.521Z,100715.97
2022-08-14T07:01:20.369Z,100704.56
2022-08-14T07:04:12.844Z,100710.03
2022-08-14T07:06:49.847Z,100709.41
2022-08-14T07:09:22.597Z,100705.53
2022-08-14T07:11:50.861Z,100702.59
2022-08-14T07:14:17.767Z,100700.34
2022-08-14T07:16:44.482Z,100691.56
2022-08-14T07:19:11.613Z,100698.75
2022-08-14T07:21:39.698Z,100698.13
2022-08-14T07:24:09.533Z,100698.31
2022-08-14T07:26:48.485Z,100686.91
2022-08-14T07:29:15.140Z,100682.13
2022-08-14T07:31:44.143Z,100685.25
2022-08-14T07:34:11.410Z,100681.31
2022-08-14T07:36:38.624Z,100686.97
2022-08-14T07:39:27.754Z,100685.81
2022-08-14T07:41:54.725Z,100681.00
2022-08-14T07:44:29.077Z,100678.41
2022-08-14T07:47:00.147Z,100670.75
2022-08-14T07:49:28.900Z,100674.28
2022-08-14T07:51:56.893Z,100676.28
2022-08-14T07:54:30.559Z,100672.28
2022-08-14T07:56:59.854Z,100666.94
2022-08-14T07:59:42.715Z,100663.28
2022-08-14T08:02:18.480Z,100663.16
2022-08-14T08:04:52.947Z,100667.13
2022-08-14T08:07:22.725Z,100656.81
2022-08-14T08:09:53.552Z,100655.31
2022-08-14T08:12:26.128Z,100649.50
2022-08-14T08:15:02.654Z,100649.81
2022-08-14T08:17:34.956Z,100652.66
2022-08-14T08:20:08.992Z,100651.97
2022-08-14T08:22:38.861Z,100660.47
2022-08-14T08:25:11.355Z,100659.94
2022-08-14T08:27:44.574Z,100660.28
2022-08-14T08:30:12.481Z,100664.75
2022-08-14T08:32:43.929Z,100651.38
2022-08-14T08:35:17.639Z,100649.72
2022-08-14T08:37:45.181Z,100644.72
2022-08-14T08:40:31.042Z,100648.69
2022-08-14T08:42:59.192Z,100652.53
2022-08-14T08:45:27.781Z,100654.72
2022-08-14T08:47:55.391Z,100657.00
2022-08-14T08:53:08.636Z,100657.59
2022-08-14T08:55:44.410Z,100653.41
2022-08-14T08:58:16.540Z,100645.56
2022-08-14T09:00:49.862Z,100648.63
2022-08-14T09:03:27.469Z,100643.09
2022-08-14T09:06:01.393Z,100643.41
2022-08-14T09:08:34.306Z,100632.41
2022-08-14T09:11:19.277Z,100636.66
2022-08-14T09:13:50.593Z,100631.97
2022-08-14T09:16:25.831Z,100625.13
2022-08-14T09:18:53.927Z,100617.41
2022-08-14T09:21:24.128Z,100620.66
2022-08-14T09:24:28.949Z,100617.63
2022-08-14T09:26:42.119Z,100621.91
2022-08-14T09:29:11.105Z,100620.47
2022-08-14T09:31:52.871Z,100620.72
2022-08-14T09:34:29.989Z,100625.25
2022-08-14T09:37:05.771Z,100621.09
2022-08-14T09:40:03.720Z,100609.41
2022-08-14T09:42:50.163Z,100600.78
2022-08-14T09:45:19.967Z,100600.88
2022-08-14T09:47:51.902Z,100591.78
2022-08-14T09:50:26.926Z,100585.47
2022-08-14T09:53:04.948Z,100595.13
2022-08-14T09:55:42.336Z,100584.09
2022-08-14T09:58:19.602Z,100573.78
2022-08-14T10:01:01.966Z,100577.47
2022-08-14T10:03:40.511Z,100570.94
2022-08-14T10:06:19.377Z,100560.59
2022-08-14T10:09:05.008Z,100557.59
2022-08-14T10:11:43.289Z,100550.13
2022-08-14T10:14:29.351Z,100556.47
2022-08-14T10:17:05.394Z,100566.75
2022-08-14T10:19:36.477Z,100562.19
2022-08-14T10:23:12.881Z,100556.84
2022-08-14T10:24:56.264Z,100543.84
2022-08-14T10:27:26.608Z,100541.47
2022-08-14T10:30:01.262Z,100546.25
2022-08-14T10:32:40.369Z,100550.91
2022-08-14T10:35:17.225Z,100539.59
2022-08-14T10:37:49.654Z,100534.41
2022-08-14T10:40:38.108Z,100531.94
2022-08-14T10:43:17.982Z,100533.88
2022-08-14T10:46:21.669Z,100530.63
2022-08-14T10:49:05.223Z,100528.25
2022-08-14T10:51:41.882Z,100520.34
2022-08-14T10:54:16.956Z,100513.56
2022-08-14T10:57:11.883Z,100507.59
2022-08-14T10:59:55.672Z,100508.81
2022-08-14T11:02:35.789Z,100507.59
2022-08-14T11:05:18.655Z,100499.09
2022-08-14T11:07:56.491Z,100500.41
2022-08-14T11:10:28.025Z,100491.78
2022-08-14T11:12:57.809Z,100493.44
2022-08-14T11:15:27.904Z,100499.66
2022-08-14T11:17:56.498Z,100488.47
2022-08-14T11:20:31.030Z,100488.16
2022-08-14T11:23:00.942Z,100485.66
2022-08-14T11:25:43.966Z,100477.84
2022-08-14T11:28:47.277Z,100478.66
2022-08-14T11:31:14.163Z,100475.66
2022-08-14T11:33:41.704Z,100476.28
2022-08-14T11:36:17.795Z,100475.31
2022-08-14T11:38:46.888Z,100488.91
2022-08-14T11:41:18.599Z,100480.00
2022-08-14T11:43:57.716Z,100480.00
2022-08-14T11:46:29.591Z,100461.13
2022-08-14T11:49:02.293Z,100467.03
2022-08-14T11:51:42.929Z,100467.31
2022-08-14T11:54:19.583Z,100473.63
2022-08-14T11:56:50.633Z,100465.44
2022-08-14T11:59:20.152Z,100458.66
2022-08-14T12:01:53.200Z,100456.13
2022-08-14T12:04:32.836Z,100448.53
2022-08-14T12:07:01.399Z,100453.75
2022-08-14T12:09:42.989Z,100440.28
2022-08-14T12:12:35.874Z,100444.50
2022-08-14T12:15:05.475Z,100446.09
2022-08-14T12:17:50.714Z,100441.66
2022-08-14T12:20:32.105Z,100448.34
2022-08-14T12:23:02.733Z,100441.97
2022-08-14T12:25:34.781Z,100450.84
2022-08-14T12:28:10.384Z,100442.84
2022-08-14T12:30:56.572Z,100411.25
2022-08-14T12:33:31.246Z,100401.19
2022-08-14T12:36:08.469Z,100397.84
2022-08-14T12:38:44.909Z,100396.75
2022-08-14T12:41:22.094Z,100399.31
2022-08-14T12:43:59.516Z,100395.81
2022-08-14T12:46:27.178Z,100385.16
2022-08-14T12:48:56.481Z,100384.34
2022-08-14T12:51:27.236Z,100366.84
2022-08-14T12:53:59.175Z,100359.22
2022-08-14T12:56:33.341Z,100363.78
2022-08-14T12:59:01.894Z,100358.69
2022-08-14T13:01:31.505Z,100355.19
2022-08-14T13:04:18.916Z,100342.00
2022-08-14T13:06:50.907Z,100341.59
2022-08-14T13:09:19.178Z,100336.63
2022-08-14T13:11:59.120Z,100338.72
2022-08-14T13:14:41.241Z,100327.56
2022-08-14T13:17:11.240Z,100324.88
2022-08-14T13:19:40.666Z,100329.84
2022-08-14T13:22:10.056Z,100320.97
2022-08-14T13:24:39.494Z,100318.25
2022-08-14T13:27:09.998Z,100318.69
2022-08-14T13:29:46.841Z,100308.16
2022-08-14T13:32:14.968Z,100306.09
2022-08-14T13:34:45.360Z,100309.81
2022-08-14T13:37:15.103Z,100296.53
2022-08-14T13:39:56.812Z,100291.91
2022-08-14T13:42:30.838Z,100297.78
2022-08-14T13:45:03.660Z,100298.94
2022-08-14T13:47:33.413Z,100299.53
2022-08-14T13:50:06.900Z,100293.00
2022-08-14T13:52:59.204Z,100292.34
2022-08-14T13:55:28.811Z,100276.56
2022-08-14T13:58:04.091Z,100272.19
2022-08-14T14:00:53.370Z,100274.22
2022-08-14T14:03:24.435Z,100275.81
2022-08-14T14:05:54.506Z,100269.69
2022-08-14T14:08:45.733Z,100267.84
2022-08-14T14:11:11.097Z,100265.41
2022-08-14T14:13:44.804Z,100268.38
2022-08-14T14:16:15.469Z,100258.88
2022-08-14T14:19:06.847Z,100262.56
2022-08-14T14:21:37.528Z,100261.50
2022-08-14T14:24:05.563Z,100251.50
2022-08-14T14:26:33.112Z,100258.72
2022-08-14T14:29:01.785Z,100259.97
2022-08-14T14:31:31.156Z,100252.22
2022-08-14T14:34:07.342Z,100243.31
2022-08-14T14:36:43.587Z,100250.69
2022-08-14T14:39:10.788Z,100246.81
2022-08-14T14:41:44.029Z,100248.53
2022-08-14T14:44:13.569Z,100243.63
2022-08-14T14:46:44.974Z,100237.44
2022-08-14T14:49:14.817Z,100239.72
2022-08-14T14:51:46.923Z,100245.50
2022-08-14T14:54:31.992Z,100239.72
2022-08-14T14:57:04.963Z,100238.78
2022-08-14T14:59:37.436Z,100239.97
2022-08-14T15:02:07.700Z,100238.78
2022-08-14T15:04:37.872Z,100234.91
2022-08-14T15:07:06.241Z,100233.47
2022-08-14T15:09:34.578Z,100234.75
2022-08-14T15:12:02.642Z,100231.03
2022-08-14T15:14:55.057Z,100236.25
2022-08-14T15:17:25.279Z,100229.75
2022-08-14T15:19:56.715Z,100222.94
2022-08-14T15:22:25.166Z,100226.03
2022-08-14T15:24:52.140Z,100221.31
2022-08-14T15:27:26.187Z,100221.31
2022-08-14T15:29:53.065Z,100219.72
2022-08-14T15:32:22.990Z,100214.56
2022-08-14T15:34:52.558Z,100212.94
2022-08-14T15:37:22.978Z,100218.31
2022-08-14T15:39:52.409Z,100214.81
2022-08-14T15:42:23.125Z,100213.56
2022-08-14T15:44:58.355Z,100209.84
2022-08-14T15:47:32.242Z,100201.63
2022-08-14T15:50:01.531Z,100205.72
2022-08-14T15:52:33.149Z,100198.13
2022-08-14T15:55:09.195Z,100199.34
2022-08-14T15:57:39.391Z,100194.41
2022-08-14T16:00:49.381Z,100200.50
2022-08-14T16:03:24.914Z,100191.84
2022-08-14T16:05:53.771Z,100192.91
2022-08-14T16:08:29.111Z,100180.13
2022-08-14T16:11:01.974Z,100180.34
2022-08-14T16:13:41.952Z,100182.00
2022-08-14T16:16:48.143Z,100181.59
2022-08-14T16:19:07.372Z,100181.00
2022-08-14T16:21:40.244Z,100179.97
2022-08-14T16:24:27.755Z,100171.94
2022-08-14T16:27:00.325Z,100177.72
2022-08-14T16:29:29.182Z,100178.75
2022-08-14T16:31:58.127Z,100168.22
2022-08-14T16:34:43.968Z,100167.63
2022-08-14T16:37:12.885Z,100170.72
2022-08-14T16:42:10.533Z,100168.88
2022-08-14T16:45:01.094Z,100156.09
2022-08-14T16:47:35.251Z,100157.94
2022-08-14T16:50:08.343Z,100162.06
2022-08-14T16:52:54.620Z,100156.50
2022-08-14T16:55:22.582Z,100142.06
2022-08-14T16:57:58.405Z,100149.47
2022-08-14T17:00:43.225Z,100146.38
2022-08-14T17:03:12.167Z,100151.13
2022-08-14T17:05:46.688Z,100146.97
2022-08-14T17:08:41.480Z,100145.34
2022-08-14T17:11:10.581Z,100139.59
2022-08-14T17:13:58.298Z,100138.56
2022-08-14T17:16:35.512Z,100133.22
2022-08-14T17:19:04.884Z,100132.59
2022-08-14T17:21:37.578Z,100123.97
2022-08-14T17:24:56.261Z,100123.97
2022-08-14T17:26:55.108Z,100124.56
2022-08-14T17:32:21.918Z,100113.44
2022-08-14T17:34:55.312Z,100117.56
2022-08-14T17:37:34.011Z,100107.69
2022-08-14T17:40:15.994Z,100109.97
2022-08-14T17:42:51.305Z,100109.53
2022-08-14T17:45:26.619Z,100104.41
2022-08-14T17:47:56.365Z,100110.34
2022-08-14T17:51:00.531Z,100111.59
2022-08-14T17:53:30.453Z,100100.44
2022-08-14T17:56:01.326Z,100102.31
2022-08-14T17:58:38.458Z,100108.28
2022-08-14T18:01:13.628Z,100106.84
2022-08-14T18:03:51.001Z,100105.00
2022-08-14T18:06:40.063Z,100110.78
2022-08-14T18:09:25.497Z,100117.78
2022-08-14T18:11:58.684Z,100127.06
2022-08-14T18:14:32.543Z,100126.03
2022-08-14T18:17:02.203Z,100132.16
2022-08-14T18:19:30.565Z,100130.28
2022-08-14T18:21:59.722Z,100125.53
2022-08-14T18:24:30.253Z,100136.53
2022-08-14T18:27:22.893Z,100131.47
2022-08-14T18:29:55.926Z,100129.69
2022-08-14T18:32:31.964Z,100123.47
2022-08-14T18:35:11.124Z,100128.59
2022-08-14T18:37:40.462Z,100123.03
2022-08-14T18:40:17.678Z,100120.09
2022-08-14T18:42:49.764Z,100122.53
2022-08-14T18:45:28.521Z,100120.09
2022-08-14T18:48:33.178Z,100118.88
2022-08-14T18:51:14.523Z,100114.66
2022-08-14T18:53:58.331Z,100126.97
2022-08-14T18:56:58.782Z,100123.81
2022-08-14T18:59:35.380Z,100127.06
2022-08-14T19:02:30.691Z,100124.28
2022-08-14T19:05:02.671Z,100124.91
2022-08-14T19:07:33.271Z,100126.28
2022-08-14T19:10:06.887Z,100128.72
2022-08-14T19:12:53.122Z,100127.84
2022-08-14T19:15:25.798Z,100129.84
2022-08-14T19:18:13.863Z,100128.53
2022-08-14T19:21:01.538Z,100126.56
2022-08-14T19:23:42.272Z,100123.84
2022-08-14T19:26:35.496Z,100124.22
2022-08-14T19:29:37.985Z,100128.69
2022-08-14T19:32:37.024Z,100129.25
2022-08-14T19:35:18.457Z,100128.63
2022-08-14T19:37:54.939Z,100128.16
2022-08-14T19:40:29.591Z,100130.00
2022-08-14T19:42:59.205Z,100123.84
2022-08-14T19:45:27.820Z,100120.38
2022-08-14T19:47:54.521Z,100121.53
2022-08-14T19:50:38.269Z,100124.41
2022-08-14T19:53:11.610Z,100120.28
2022-08-14T19:55:45.700Z,100125.97
2022-08-14T19:58:13.744Z,100130.06
2022-08-14T20:00:52.878Z,100124.91
2022-08-14T20:03:23.244Z,100123.44
2022-08-14T20:06:01.275Z,100126.09
2022-08-14T20:10:59.683Z,100126.47
2022-08-14T20:12:00.635Z,100123.34
2022-08-14T20:14:20.421Z,100116.00
2022-08-14T20:16:55.836Z,100125.19
2022-08-14T20:19:29.129Z,100121.28
2022-08-14T20:22:00.745Z,100117.78
2022-08-14T20:24:45.197Z,100122.91
2022-08-14T20:27:21.173Z,100122.09
2022-08-14T20:30:33.028Z,100119.63
2022-08-14T20:33:07.674Z,100115.28
2022-08-14T20:35:43.558Z,100116.28
2022-08-14T20:38:29.219Z,100128.97
2022-08-14T20:40:58.680Z,100123.03
2022-08-14T20:43:52.824Z,100119.44
2022-08-14T20:46:31.066Z,100122.03
2022-08-14T20:49:06.693Z,100118.69
2022-08-14T20:51:43.514Z,100112.75
2022-08-14T20:54:34.707Z,100117.59
2022-08-14T20:57:11.995Z,100116.31
2022-08-14T20:59:45.429Z,100116.59
2022-08-14T21:02:34.195Z,100119.81
2022-08-14T21:05:16.812Z,100118.50
2022-08-14T21:07:50.829Z,100107.03
2022-08-14T21:10:34.066Z,100108.03
2022-08-14T21:13:26.661Z,100110.25
2022-08-14T21:15:57.467Z,100107.69
2022-08-14T21:18:47.666Z,100105.09
2022-08-14T21:21:18.619Z,100107.13
2022-08-14T21:23:54.492Z,100108.31
2022-08-14T21:26:52.088Z,100103.00
2022-08-14T21:29:14.434Z,100109.69
2022-08-14T21:31:42.257Z,100099.94
2022-08-14T21:34:31.659Z,100096.03
2022-08-14T21:36:55.973Z,100102.91
2022-08-14T21:39:24.355Z,100100.78
2022-08-14T21:41:59.022Z,100100.41
2022-08-14T21:44:43.173Z,100096.41
2022-08-14T21:47:12.104Z,100103.38
2022-08-14T21:49:40.220Z,100098.03
2022-08-14T21:52:50.352Z,100097.22
2022-08-14T21:55:09.107Z,100101.72
2022-08-14T21:57:56.444Z,100091.88
2022-08-14T22:00:35.151Z,100092.47
2022-08-14T22:03:04.635Z,100084.50
2022-08-14T22:05:31.356Z,100083.66
2022-08-14T22:07:58.451Z,100083.31
2022-08-14T22:10:26.101Z,100079.19
2022-08-14T22:13:00.551Z,100081.53
2022-08-14T22:15:28.425Z,100077.47
2022-08-14T22:17:55.444Z,100084.16
2022-08-14T22:20:24.524Z,100079.31
2022-08-14T22:22:56.248Z,100079.19
2022-08-14T22:25:31.972Z,100068.75
2022-08-14T22:28:03.073Z,100068.91
2022-08-14T22:30:30.268Z,100068.75
2022-08-14T22:33:00.014Z,100069.38
2022-08-14T22:35:28.104Z,100067.56
2022-08-14T22:41:05.404Z,100069.38
2022-08-14T22:43:11.140Z,100062.44
2022-08-14T22:45:39.016Z,100055.59
2022-08-14T22:48:10.764Z,100062.94
2022-08-14T22:50:49.063Z,100063.13
2022-08-14T22:53:20.503Z,100060.63
2022-08-14T22:55:47.695Z,100057.28
2022-08-14T22:58:17.299Z,100057.28
2022-08-14T23:00:45.158Z,100057.28
2022-08-14T23:03:17.455Z,100053.81
2022-08-14T23:05:53.040Z,100056.47
2022-08-14T23:08:58.372Z,100057.66
2022-08-14T23:11:10.440Z,100055.72
2022-08-14T23:13:43.576Z,100056.06
2022-08-14T23:16:20.273Z,100050.28
2022-08-14T23:18:53.451Z,100055.28
2022-08-14T23:21:24.335Z,100047.09
2022-08-14T23:23:55.137Z,100042.97
2022-08-14T23:26:47.733Z,100046.88
2022-08-14T23:29:17.886Z,100046.91
2022-08-14T23:31:44.687Z,100045.97
2022-08-14T23:34:20.701Z,100039.22
2022-08-14T23:36:54.611Z,100053.81
2022-08-14T23:39:31.006Z,100037.66
2022-08-14T23:42:07.537Z,100045.81
2022-08-14T23:44:37.806Z,100037.88
2022-08-14T23:47:12.188Z,100045.88
2022-08-14T23:50:03.660Z,100026.63
2022-08-14T23:52:50.528Z,100038.09
2022-08-14T23:55:29.953Z,100032.97
2022-08-14T23:57:58.243Z,100022.63
